Latest Coastal Weather Observations for Taree Airport

IDN60701

Issued at 9:32 am EDT Friday 30 January 2015 (issued every 10 minutes, with the page automatically refreshed every 10 minutes)

About coastal observations | Map of coastal stations | Coastal observations for NSW | Marine services | Other Formats
Station Details ID: 060141 Name: TAREE AIRPORT AWS Lat: -31.89 Lon: 152.51 Height: 8.0 m
Data from the previous 72 hours. | See also: Recent months at Taree Airport
Date/Time
EDT
Temp

°C
Wind Pressure Rain
since 9am
mm
Weather Cloud Vis
km
Sea
Height
m
Swell
Dir
 
Speed
knots
Gust
knots
hPa Trend Height
m
Period
s
Dir
30/09:30am 19.8 W 8 12 1009.3 - 0.0 - - - - - - -
30/09:00am 19.1 WSW 8 12 1009.5 - 0.0 - - - - - - -
30/08:30am 18.2 W 7 11 1009.5 - 0.0 - - - - - - -
30/08:00am 17.1 WNW 7 10 1009.5 - 0.0 - - - - - - -
30/07:30am 15.9 W 7 8 1009.3 - 0.0 - - - - - - -
30/07:00am 15.1 NW 6 7 1009.1 - 0.0 - - - - - - -
30/06:30am 15.0 W 5 6 1009.0 - 0.0 - - - - - - -
30/06:00am 15.1 WNW 6 8 1008.8 - 0.0 - - - - - - -
30/05:30am 15.1 NW 7 8 1008.7 - 0.0 - - - - - - -
30/05:00am 15.1 NW 6 8 1008.6 - 0.0 - - - - - - -
30/04:30am 15.1 NW 7 8 1008.6 - 0.0 - - - - - - -
30/04:00am 15.1 NW 5 6 1008.7 - 0.0 - - - - - - -
30/03:30am 14.6 NW 6 7 1008.9 - 0.0 - - - - - - -
30/03:00am 13.9 N 3 5 1009.2 - 0.0 - - - - - - -
30/02:30am 14.1 NNE 4 5 1009.5 - 0.0 - - - - - - -
30/02:00am 14.8 N 4 5 1009.8 - 0.0 - - - - - - -
30/01:30am 14.6 NNW 4 6 1010.1 - 0.0 - - - - - - -
30/01:00am 15.1 NNW 4 5 1010.2 - 0.0 - - - - - - -
30/12:30am 16.1 NW 6 6 1010.5 - 0.0 - - - - - - -
30/12:00am 16.1 NW 6 6 1010.7 - 0.0 - - - - - - -
 
Date/Time
EDT
Temp

°C
Wind Pressure Rain
since 9am
mm
Weather Cloud Vis
km
Sea
Height
m
Swell
Dir
 
Speed
knots
Gust
knots
hPa Trend Height
m
Period
s
Dir
29/11:30pm 17.4 NW 5 6 1010.8 - 0.0 - - - - - - -
29/11:00pm 17.8 WNW 5 7 1010.9 - 0.0 - - - - - - -
29/10:30pm 18.0 W 6 7 1010.9 - 0.0 - - - - - - -
29/10:00pm 18.9 W 6 7 1011.0 - 0.0 - - - - - - -
29/09:30pm 19.4 WSW 7 11 1010.8 - 0.0 - - - - - - -
29/09:00pm 19.1 SW 7 10 1010.6 - 0.0 - - - - - - -
29/08:30pm 19.7 SSW 7 9 1010.3 - 0.0 - - - - - - -
29/08:00pm 20.1 SSW 7 8 1010.0 - 0.0 - - - - - - -
29/07:30pm 21.2 SSW 7 11 1009.6 - 0.0 - - - - - - -
29/07:00pm 22.2 S 10 14 1009.3 - 0.0 - - - - - - -
29/06:30pm 22.8 SSW 13 20 1008.8 - 0.0 - - - - - - -
29/06:00pm 23.4 S 13 18 1008.6 - 0.0 - - - - - - -
29/05:30pm 23.7 SSW 14 19 1008.5 - 0.0 - - - - - - -
29/05:00pm 23.8 S 14 19 1008.5 - 0.0 - Partly cloudy - - - - -
29/04:30pm 23.8 SSE 12 20 1008.4 - 0.0 - Partly cloudy - - - - -
29/04:00pm 23.7 SSE 11 16 1008.6 - 0.0 - Partly cloudy - - - - -
29/03:30pm 24.9 SSW 10 17 1008.6 - 0.0 - Partly cloudy - - - - -
29/03:15pm 23.6 SW 13 26 1008.6 - 0.0 - Partly cloudy - - - - -
29/03:00pm 25.5 SW 12 18 1008.8 - 0.0 - Mostly cloudy - - - - -
29/02:30pm 23.3 SW 12 16 1009.1 - 0.0 - Partly cloudy - - - - -
29/02:00pm 24.7 SW 11 19 1009.4 - 0.0 - Partly cloudy - - - - -
29/01:30pm 23.0 SW 13 19 1009.7 - 0.0 - Partly cloudy - - - - -
29/01:00pm 22.9 WSW 12 19 1010.0 - 0.0 - Partly cloudy - - - - -
29/12:30pm 22.4 WSW 14 19 1010.3 - 0.0 - Partly cloudy - - - - -
29/12:00pm 21.8 SW 15 19 1010.5 - 0.0 - Cloudy - - - - -
29/11:30am 22.5 SW 14 18 1010.6 - 0.0 - Partly cloudy - - - - -
29/11:00am 22.0 SW 11 17 1010.8 - 0.0 - Partly cloudy - - - - -
29/10:30am 21.2 SW 12 17 1011.0 - 0.0 - Partly cloudy - - - - -
29/10:00am 21.0 WSW 14 19 1011.1 - 0.0 - - - - - - -
29/09:30am 20.2 WSW 12 21 1011.1 - 0.0 - Partly cloudy - - - - -
29/09:00am 20.1 WSW 12 17 1011.1 - 6.2 - Mostly clear - - - - -
29/08:30am 19.6 WSW 11 16 1011.0 - 6.2 - Partly cloudy - - - - -
29/08:00am 18.8 W 8 13 1010.8 - 6.2 - Partly cloudy - - - - -
29/07:30am 18.2 W 10 15 1010.4 - 6.2 - Partly cloudy - - - - -
29/07:00am 17.8 WSW 9 14 1010.1 - 6.2 - - - - - - -
29/06:30am 17.3 WSW 9 13 1009.9 - 6.2 - Partly cloudy - - - - -
29/06:00am 17.7 W 8 13 1009.2 - 6.2 - Cloudy - - - - -
29/05:30am 17.5 W 8 10 1009.2 - 6.2 - Partly cloudy - - - - -
29/05:00am 17.4 W 7 10 1009.2 - 6.2 - Partly cloudy - - - - -
29/04:30am 17.6 W 7 10 1009.1 - 6.2 - Partly cloudy - - - - -
29/04:00am 17.6 W 7 10 1009.2 - 6.2 - Cloudy - - - - -
29/03:30am 17.6 W 9 12 1009.6 - 6.2 - Partly cloudy - - - - -
29/03:00am 17.5 WSW 9 14 1009.7 - 6.2 - Partly cloudy - - - - -
29/02:30am 17.8 W 8 13 1009.9 - 6.2 - Partly cloudy - - - - -
29/02:00am 18.2 WSW 9 14 1010.3 - 6.2 - Partly cloudy - - - - -
29/01:30am 18.3 SW 11 17 1010.6 - 6.2 - Partly cloudy - - - - -
29/01:00am 18.4 W 7 8 1010.8 - 6.2 - Cloudy - - - - -
29/12:30am 18.3 W 8 11 1010.9 - 6.2 - Partly cloudy - - - - -
29/12:00am 18.1 WSW 7 10 1011.2 - 6.2 - Mostly cloudy - - - - -
 
Date/Time
EDT
Temp

°C
Wind Pressure Rain
since 9am
mm
Weather Cloud Vis
km
Sea
Height
m
Swell
Dir
 
Speed
knots
Gust
knots
hPa Trend Height
m
Period
s
Dir
28/11:30pm 18.3 W 6 8 1011.3 - 6.2 - Partly cloudy - - - - -
28/11:00pm 18.6 WSW 6 8 1011.4 - 6.2 - - - - - - -
28/10:30pm 19.3 SW 9 13 1011.6 - 6.2 - Partly cloudy - - - - -
28/10:00pm 19.6 WSW 6 8 1011.4 - 6.2 - Partly cloudy - - - - -
28/09:30pm 19.7 WSW 6 8 1011.3 - 6.2 - - - - - - -
28/09:00pm 20.1 WSW 7 9 1011.1 - 6.2 - Mostly clear - - - - -
28/08:30pm 20.4 SW 8 11 1010.9 - 6.2 - - - - - - -
28/08:00pm 20.6 SW 8 11 1010.9 - 6.2 - Partly cloudy - - - - -
28/07:30pm 21.0 SSW 11 16 1010.8 - 6.2 - Partly cloudy - - - - -
28/07:00pm 21.5 SSW 12 17 1010.3 - 6.2 - Partly cloudy - - - - -
28/06:30pm 21.8 SSW 13 18 1010.2 - 6.2 - Partly cloudy - - - - -
28/06:00pm 22.1 SW 14 20 1009.9 - 6.2 - Cloudy - - - - -
28/05:30pm 22.6 SSW 12 15 1009.8 - 6.2 - Partly cloudy - - - - -
28/05:00pm 23.2 SSW 14 20 1009.8 - 6.2 - Partly cloudy - - - - -
28/04:30pm 23.3 SSW 12 15 1010.1 - 6.2 - Partly cloudy - - - - -
28/04:00pm 22.6 SW 8 13 1010.0 - 6.2 - Partly cloudy - - - - -
28/03:30pm 21.4 SSW 7 10 1010.3 - 6.2 - Partly cloudy - - - - -
28/03:00pm 20.9 SW 14 19 1010.3 - 6.2 - Cloudy - - - - -
28/02:48pm 21.2 SSW 15 21 1010.4 - 6.2 - Partly cloudy - - - - -
28/02:30pm 22.3 SSE 6 9 1010.3 - 6.2 - Partly cloudy - - - - -
28/02:00pm 22.1 SW 9 14 1010.3 - 6.2 - Partly cloudy - - - - -
28/01:30pm 21.6 WSW 7 10 1010.5 - 6.2 - Partly cloudy - - - - -
28/01:00pm 20.1 WSW 6 9 1010.7 - 6.2 - Partly cloudy - - - - -
28/12:30pm 19.7 W 6 8 1010.7 - 6.2 - Partly cloudy - - - - -
28/12:00pm 19.2 WSW 7 9 1010.8 - 6.0 Rain Cloudy - - - - -
28/11:30am 18.8 SW 6 7 1010.8 - 4.6 - Partly cloudy - - - - -
28/11:00am 20.1 W 6 7 1010.8 - 1.6 - Partly cloudy - - - - -
28/10:30am 19.6 SW 4 7 1010.8 - 1.6 - Partly cloudy - - - - -
28/10:23am 19.4 SW 5 7 1010.7 - 1.6 - Partly cloudy - - - - -
28/10:04am 19.2 W 4 6 1010.7 - 1.6 - Partly cloudy - - - - -
28/10:00am 18.9 W 4 6 1010.7 - 1.6 - Partly cloudy - - - - -
28/09:30am 18.7 WSW 5 7 1010.6 - 0.4 - Partly cloudy - - - - -
28/09:00am 18.8 WSW 6 8 1010.4 - 20.6 Recent precip. Mostly cloudy - - - - -
28/08:30am 18.3 WSW 5 6 1010.2 - 20.6 - Partly cloudy - - - - -
28/08:00am 18.0 WSW 7 8 1010.0 - 20.2 - Partly cloudy - - - - -
28/07:30am 18.1 SSW 9 14 1009.9 - 17.8 - Partly cloudy - - - - -
28/07:00am 17.9 W 6 8 1009.2 - 14.6 - Partly cloudy - - - - -
28/06:30am 17.8 WNW 6 7 1008.9 - 14.6 - Partly cloudy - - - - -
28/06:00am 17.8 NW 6 8 1008.7 - 14.0 Recent precip. Cloudy - - - - -
28/05:30am 17.8 NW 6 8 1008.6 - 13.6 - Partly cloudy - - - - -
28/05:00am 17.8 NW 6 7 1008.5 - 13.2 - Partly cloudy - - - - -
28/04:30am 17.8 NW 4 5 1008.6 - 13.0 - Partly cloudy - - - - -
28/04:00am 17.8 WNW 5 7 1008.8 - 13.0 - Partly cloudy - - - - -
28/03:30am 17.9 WNW 4 5 1009.0 - 13.0 - Partly cloudy - - - - -
28/03:00am 17.9 WNW 5 6 1009.2 - 13.0 Recent precip. Cloudy - - - - -
28/02:30am 18.1 W 8 10 1009.3 - 13.0 - Partly cloudy - - - - -
28/02:00am 18.0 W 6 9 1009.6 - 12.0 - Partly cloudy - - - - -
28/01:30am 18.1 WSW 6 7 1009.7 - 11.8 - Partly cloudy - - - - -
28/01:00am 18.1 WSW 8 13 1010.2 - 11.8 - Cloudy - - - - -
28/12:30am 18.3 SW 7 8 1009.8 - 11.8 - Cloudy - - - - -
28/12:00am 17.9 CALM 0 0 1009.8 - 11.8 - Cloudy - - - - -
 
Date/Time
EDT
Temp

°C
Wind Pressure Rain
since 9am
mm
Weather Cloud Vis
km
Sea
Height
m
Swell
Dir
 
Speed
knots
Gust
knots
hPa Trend Height
m
Period
s
Dir
27/11:30pm 17.9 N 1 4 1010.7 - 11.8 - Partly cloudy - - - - -
27/11:00pm 18.1 NW 1 4 1011.1 - 11.8 - Partly cloudy - - - - -
27/10:30pm 18.1 NW 4 6 1011.4 - 11.8 - Cloudy - - - - -
27/10:00pm 18.2 WNW 5 7 1012.1 - 11.6 - Cloudy - - - - -
27/09:30pm 18.3 NW 5 6 1012.1 - 11.6 - Cloudy - - - - -
27/09:00pm 18.5 WNW 5 6 1011.8 - 11.6 Recent precip. Cloudy - - - - -
27/08:30pm 18.6 W 5 7 1011.5 - 11.6 - Partly cloudy - - - - -
27/08:00pm 18.7 W 6 7 1011.7 - 11.4 - Partly cloudy - - - - -
27/07:30pm 18.9 SW 6 7 1011.2 - 9.2 - Partly cloudy - - - - -
27/07:00pm 18.9 S 6 8 1010.8 - 8.4 - Partly cloudy - - - - -
27/06:49pm 19.1 SSW 6 8 1010.8 - 8.2 - Partly cloudy - - - - -
27/06:30pm 19.0 S 6 7 1010.6 - 7.8 - Partly cloudy - - - - -
27/06:00pm 19.2 ESE 4 6 1010.5 - 7.0 Rain Cloudy - - - - -
27/05:56pm 19.2 ESE 4 5 1010.5 - 6.8 - Partly cloudy - - - - -
27/05:30pm 19.6 SE 7 14 1010.3 - 5.8 - Partly cloudy - - - - -
27/05:00pm 20.5 S 6 8 1009.7 - 4.8 - Partly cloudy - - - - -
27/04:30pm 20.9 SSE 10 14 1009.9 - 3.6 - Partly cloudy - - - - -
27/04:00pm 21.9 ESE 5 6 1009.8 - 3.2 - Cloudy - - - - -
27/03:30pm 22.0 E 6 9 1009.8 - 3.2 - Cloudy - - - - -
27/03:00pm 21.6 ENE 4 6 1010.0 - 3.2 - Cloudy - - - - -
27/02:30pm 21.2 NE 5 7 1010.0 - 3.2 - Partly cloudy - - - - -
27/02:00pm 21.0 E 7 9 1010.3 - 3.2 - Partly cloudy - - - - -
27/01:30pm 20.5 NNE 6 10 1010.5 - 2.8 - Partly cloudy - - - - -
27/01:00pm 21.2 N 5 8 1010.8 - 0.8 - Partly cloudy - - - - -
27/12:30pm 22.6 ENE 3 8 1010.9 - 0.0 - Partly cloudy - - - - -
27/12:00pm 22.7 E 5 7 1011.1 - 0.0 - Cloudy - - - - -
27/11:30am 22.8 ENE 7 9 1011.2 - 0.0 - Partly cloudy - - - - -
27/11:00am 21.4 NE 8 12 1011.4 - 0.0 - Partly cloudy - - - - -
27/10:30am 22.7 ENE 7 10 1011.2 - 0.0 - Partly cloudy - - - - -
27/10:00am 23.2 E 6 8 1011.1 - 0.0 - Partly cloudy - - - - -

Other Formats:

Comma delimited format used in spreadsheet applications
http://www.bom.gov.au/fwo/IDN60701/IDN60701.95784.axf

JavaScript Object Notation format (JSON) in row-major order
http://www.bom.gov.au/fwo/IDN60701/IDN60701.95784.json